createdAt,value
2017-11-07T00:01:21.450Z,32.00
2017-11-07T00:02:58.321Z,29.50
2017-11-07T00:04:34.970Z,31.25
2017-11-07T00:06:12.385Z,30.50
2017-11-07T00:07:49.140Z,30.25
2017-11-07T00:09:25.829Z,29.75
2017-11-07T00:11:03.148Z,30.75
2017-11-07T00:12:39.840Z,33.00
2017-11-07T00:14:17.245Z,32.75
2017-11-07T00:15:54.679Z,35.50
2017-11-07T00:17:32.597Z,32.00
2017-11-07T00:19:10.388Z,30.00
2017-11-07T00:20:47.841Z,31.75
2017-11-07T00:22:36.142Z,32.25
2017-11-07T00:24:13.218Z,32.50
2017-11-07T00:25:49.937Z,29.75
2017-11-07T00:27:26.597Z,33.25
2017-11-07T00:29:03.552Z,32.75
2017-11-07T00:30:40.775Z,28.75
2017-11-07T00:32:17.491Z,34.25
2017-11-07T00:33:54.205Z,32.25
2017-11-07T00:35:31.960Z,33.25
2017-11-07T00:37:08.868Z,31.00
2017-11-07T00:38:45.434Z,27.75
2017-11-07T00:40:22.133Z,30.75
2017-11-07T00:41:59.574Z,33.25
2017-11-07T00:43:36.559Z,33.00
2017-11-07T00:45:14.995Z,33.00
2017-11-07T00:46:51.567Z,32.25
2017-11-07T00:48:28.915Z,30.75
2017-11-07T00:50:05.777Z,31.50
2017-11-07T00:51:42.439Z,27.50
2017-11-07T00:53:19.184Z,29.50
2017-11-07T00:54:55.839Z,27.50
2017-11-07T00:56:32.671Z,23.50
2017-11-07T00:58:09.447Z,28.50
2017-11-07T00:59:47.202Z,30.25
2017-11-07T01:01:24.294Z,27.25
2017-11-07T01:03:03.309Z,26.25
2017-11-07T01:04:40.001Z,30.75
2017-11-07T01:06:17.813Z,28.50
2017-11-07T01:07:54.494Z,28.50
2017-11-07T01:09:31.735Z,23.50
2017-11-07T01:11:08.529Z,24.00
2017-11-07T01:12:46.083Z,20.75
2017-11-07T01:14:23.526Z,27.25
2017-11-07T01:16:00.624Z,27.75
2017-11-07T01:17:37.265Z,24.25
2017-11-07T01:19:15.287Z,24.50
2017-11-07T01:20:52.675Z,22.50
2017-11-07T01:22:29.917Z,25.25
2017-11-07T01:24:09.066Z,26.00
2017-11-07T01:25:45.627Z,23.50
2017-11-07T01:27:22.589Z,25.75
2017-11-07T01:28:59.393Z,22.50
2017-11-07T01:30:36.116Z,24.75
2017-11-07T01:32:12.700Z,25.50
2017-11-07T01:33:49.616Z,26.75
2017-11-07T01:35:27.126Z,24.75
2017-11-07T01:37:03.619Z,23.25
2017-11-07T01:38:39.865Z,26.50
2017-11-07T01:40:16.889Z,28.75
2017-11-07T01:41:53.595Z,24.50
2017-11-07T01:43:30.045Z,24.50
2017-11-07T01:45:08.003Z,21.00
2017-11-07T01:46:44.900Z,25.25
2017-11-07T01:48:21.595Z,20.25
2017-11-07T01:49:58.268Z,26.25
2017-11-07T01:51:35.395Z,27.50
2017-11-07T01:53:11.833Z,24.50
2017-11-07T01:54:48.417Z,24.00
2017-11-07T01:56:24.862Z,24.25
2017-11-07T01:58:01.332Z,28.25
2017-11-07T01:59:39.285Z,25.50
2017-11-07T02:01:16.967Z,27.00
2017-11-07T02:02:53.474Z,22.75
2017-11-07T02:04:29.875Z,25.50
2017-11-07T02:06:06.973Z,21.00
2017-11-07T02:07:44.427Z,24.75
2017-11-07T02:09:21.507Z,22.75
2017-11-07T02:10:58.060Z,25.00
2017-11-07T02:12:34.824Z,21.25
2017-11-07T02:14:11.366Z,27.25
2017-11-07T02:15:48.235Z,23.25
2017-11-07T02:17:24.800Z,23.00
2017-11-07T02:19:01.309Z,23.25
2017-11-07T02:20:38.710Z,29.50
2017-11-07T02:22:15.661Z,23.25
2017-11-07T02:23:53.241Z,22.75
2017-11-07T02:25:29.856Z,19.00
2017-11-07T02:27:06.341Z,24.00
2017-11-07T02:28:42.763Z,22.25
2017-11-07T02:30:19.801Z,22.25
2017-11-07T02:31:57.216Z,19.25
2017-11-07T02:33:34.299Z,28.25
2017-11-07T02:35:11.634Z,23.00
2017-11-07T02:36:48.284Z,24.00
2017-11-07T02:38:24.773Z,22.25
2017-11-07T02:40:01.669Z,22.25
2017-11-07T02:41:38.285Z,27.25
2017-11-07T02:43:15.520Z,21.25
2017-11-07T02:44:51.946Z,21.50
2017-11-07T02:46:28.781Z,22.50
2017-11-07T02:48:05.466Z,21.50
2017-11-07T02:49:43.089Z,26.75
2017-11-07T02:51:19.554Z,24.50
2017-11-07T02:52:56.754Z,29.25
2017-11-07T02:54:33.184Z,20.25
2017-11-07T02:56:10.106Z,22.25
2017-11-07T02:57:46.543Z,19.00
2017-11-07T02:59:23.339Z,21.50
2017-11-07T03:00:59.765Z,21.00
2017-11-07T03:02:36.188Z,23.00
2017-11-07T03:04:12.543Z,27.75
2017-11-07T03:05:50.247Z,25.50
2017-11-07T03:07:26.633Z,22.50
2017-11-07T03:09:03.226Z,22.75
2017-11-07T03:10:39.495Z,24.75
2017-11-07T03:12:16.720Z,26.00
2017-11-07T03:13:53.169Z,27.00
2017-11-07T03:15:30.023Z,25.75
2017-11-07T03:17:06.650Z,22.75
2017-11-07T03:18:43.250Z,21.50
2017-11-07T03:20:19.550Z,23.00
2017-11-07T03:21:55.956Z,21.25
2017-11-07T03:23:34.151Z,22.25
2017-11-07T03:25:10.860Z,21.25
2017-11-07T03:26:47.537Z,21.25
2017-11-07T03:28:26.260Z,23.00
2017-11-07T03:30:04.668Z,26.25
2017-11-07T03:31:42.128Z,23.00
2017-11-07T03:33:18.495Z,24.50
2017-11-07T03:34:54.790Z,26.25
2017-11-07T03:36:31.226Z,24.25
2017-11-07T03:38:09.265Z,30.25
2017-11-07T03:39:45.583Z,21.00
2017-11-07T03:41:22.671Z,21.75
2017-11-07T03:43:00.218Z,21.75
2017-11-07T03:44:36.815Z,26.75
2017-11-07T03:46:15.105Z,19.75
2017-11-07T03:47:52.301Z,29.50
2017-11-07T03:49:28.937Z,23.00
2017-11-07T03:51:07.763Z,21.00
2017-11-07T03:52:44.204Z,24.25
2017-11-07T03:54:20.648Z,21.00
2017-11-07T03:55:57.521Z,27.25
2017-11-07T03:57:34.150Z,22.50
2017-11-07T03:59:11.533Z,22.00
2017-11-07T04:00:48.819Z,24.25
2017-11-07T04:02:26.339Z,25.75
2017-11-07T04:04:03.254Z,23.50
2017-11-07T04:05:39.677Z,25.50
2017-11-07T04:07:16.045Z,27.25
2017-11-07T04:08:53.301Z,21.00
2017-11-07T04:10:30.002Z,21.00
2017-11-07T04:12:06.423Z,22.25
2017-11-07T04:13:42.842Z,26.50
2017-11-07T04:15:19.989Z,25.00
2017-11-07T04:16:57.177Z,22.75
2017-11-07T04:18:33.590Z,20.25
2017-11-07T04:20:11.136Z,25.00
2017-11-07T04:21:47.430Z,24.75
2017-11-07T04:23:24.978Z,24.75
2017-11-07T04:25:02.239Z,25.75
2017-11-07T04:26:38.677Z,24.00
2017-11-07T04:28:15.019Z,25.25
2017-11-07T04:29:51.696Z,26.00
2017-11-07T04:31:28.119Z,26.25
2017-11-07T04:33:04.703Z,30.00
2017-11-07T04:34:41.019Z,23.50
2017-11-07T04:36:17.751Z,27.50
2017-11-07T04:37:54.647Z,24.00
2017-11-07T04:39:31.165Z,22.25
2017-11-07T04:41:07.650Z,22.25
2017-11-07T04:42:44.463Z,25.75
2017-11-07T04:44:20.856Z,28.25
2017-11-07T04:45:57.279Z,30.50
2017-11-07T04:47:33.801Z,30.75
2017-11-07T04:49:11.267Z,33.00
2017-11-07T04:50:48.009Z,31.50
2017-11-07T04:52:24.495Z,29.50
2017-11-07T04:54:01.292Z,29.50
2017-11-07T04:55:40.420Z,28.75
2017-11-07T04:57:16.995Z,31.50
2017-11-07T04:58:53.615Z,31.25
2017-11-07T05:00:30.164Z,28.75
2017-11-07T05:02:06.856Z,27.75
2017-11-07T05:03:48.456Z,27.25
2017-11-07T05:05:25.584Z,29.25
2017-11-07T05:07:02.013Z,23.75
2017-11-07T05:08:39.198Z,29.00
2017-11-07T05:10:15.657Z,29.50
2017-11-07T05:11:52.167Z,29.50
2017-11-07T05:13:29.360Z,30.75
2017-11-07T05:15:07.197Z,28.75
2017-11-07T05:16:43.562Z,29.50
2017-11-07T05:18:20.048Z,28.25
2017-11-07T05:19:56.532Z,26.00
2017-11-07T05:21:33.377Z,25.50
2017-11-07T05:23:10.373Z,28.75
2017-11-07T05:24:47.506Z,30.25
2017-11-07T05:26:23.835Z,24.75
2017-11-07T05:28:01.628Z,29.00
2017-11-07T05:29:38.698Z,28.75
2017-11-07T05:32:59.587Z,25.75
2017-11-07T05:34:36.162Z,28.00
2017-11-07T05:36:13.138Z,30.75
2017-11-07T05:37:49.520Z,29.00
2017-11-07T05:39:26.760Z,24.25
2017-11-07T05:41:04.170Z,31.75
2017-11-07T05:42:40.572Z,24.75
2017-11-07T05:44:17.009Z,28.25
2017-11-07T05:45:53.997Z,29.25
2017-11-07T05:47:30.884Z,26.75
2017-11-07T05:49:08.808Z,25.00
2017-11-07T05:50:45.344Z,24.50
2017-11-07T05:52:22.081Z,25.75
2017-11-07T05:53:58.777Z,25.00
2017-11-07T05:55:35.882Z,26.25
2017-11-07T05:57:12.999Z,26.50
2017-11-07T05:58:49.424Z,26.75
2017-11-07T06:00:26.479Z,24.75
2017-11-07T06:02:03.021Z,28.75
2017-11-07T06:03:39.553Z,23.25
2017-11-07T06:05:16.123Z,28.25
2017-11-07T06:06:52.522Z,23.00
2017-11-07T06:08:29.852Z,25.00
2017-11-07T06:10:07.269Z,28.50
2017-11-07T06:11:43.923Z,22.00
2017-11-07T06:13:20.931Z,26.25
2017-11-07T06:14:58.246Z,28.00
2017-11-07T06:16:35.821Z,24.75
2017-11-07T06:18:12.305Z,27.25
2017-11-07T06:19:51.017Z,22.00
2017-11-07T06:21:27.487Z,29.75
2017-11-07T06:23:03.965Z,31.00
2017-11-07T06:24:40.317Z,25.25
2017-11-07T06:26:17.039Z,28.50
2017-11-07T06:27:53.456Z,24.75
2017-11-07T06:29:30.078Z,29.75
2017-11-07T06:31:07.856Z,29.25
2017-11-07T06:32:44.625Z,30.25
2017-11-07T06:34:21.137Z,28.25
2017-11-07T06:35:58.776Z,30.25
2017-11-07T06:37:36.424Z,30.75
2017-11-07T06:39:13.232Z,30.50
2017-11-07T06:40:49.682Z,35.00
2017-11-07T06:42:26.991Z,30.00
2017-11-07T06:44:04.252Z,39.50
2017-11-07T06:45:41.562Z,25.50
2017-11-07T06:47:18.018Z,25.75
2017-11-07T06:48:54.529Z,32.00
2017-11-07T06:50:31.108Z,28.25
2017-11-07T06:52:07.632Z,31.00
2017-11-07T06:53:43.948Z,33.00
2017-11-07T06:55:20.376Z,31.75
2017-11-07T06:56:56.723Z,33.75
2017-11-07T06:58:33.513Z,32.00
2017-11-07T07:00:10.182Z,28.75
2017-11-07T07:01:46.850Z,27.75
2017-11-07T07:03:23.580Z,29.00
2017-11-07T07:05:00.275Z,27.50
2017-11-07T07:06:37.458Z,32.25
2017-11-07T07:08:14.783Z,37.25
2017-11-07T07:09:52.044Z,29.75
2017-11-07T07:11:28.794Z,35.50
2017-11-07T07:13:05.739Z,29.25
2017-11-07T07:14:42.260Z,31.00
2017-11-07T07:16:18.554Z,31.75
2017-11-07T07:17:55.997Z,34.50
2017-11-07T07:19:32.431Z,31.75
2017-11-07T07:21:09.583Z,32.00
2017-11-07T07:22:47.543Z,28.00
2017-11-07T07:24:24.435Z,28.75
2017-11-07T07:26:01.284Z,27.50
2017-11-07T07:27:37.933Z,30.75
2017-11-07T07:29:14.992Z,26.75
2017-11-07T07:30:51.906Z,24.75
2017-11-07T07:32:28.291Z,26.50
2017-11-07T07:34:05.091Z,33.50
2017-11-07T07:35:41.630Z,28.00
2017-11-07T07:37:18.279Z,29.50
2017-11-07T07:38:55.567Z,23.25
2017-11-07T07:40:32.125Z,29.25
2017-11-07T07:42:08.561Z,28.50
2017-11-07T07:43:46.003Z,29.25
2017-11-07T07:45:22.431Z,27.50
2017-11-07T07:46:58.821Z,27.25
2017-11-07T07:48:35.308Z,23.25
2017-11-07T07:50:12.945Z,21.25
2017-11-07T07:51:49.320Z,25.75
2017-11-07T07:53:25.669Z,26.75
2017-11-07T07:55:03.980Z,21.25
2017-11-07T07:56:44.059Z,23.50
2017-11-07T07:58:21.165Z,26.00
2017-11-07T07:59:57.551Z,22.50
2017-11-07T08:01:35.724Z,20.75
2017-11-07T08:03:13.391Z,21.00
2017-11-07T08:04:49.843Z,21.00
2017-11-07T08:06:26.347Z,28.50
2017-11-07T08:08:03.304Z,25.50
2017-11-07T08:09:40.986Z,27.00
2017-11-07T08:11:17.395Z,23.25
2017-11-07T08:12:54.669Z,23.25
2017-11-07T08:14:31.851Z,31.25
2017-11-07T08:16:08.951Z,28.50
2017-11-07T08:17:46.178Z,22.50
2017-11-07T08:19:22.525Z,22.50
2017-11-07T08:20:59.503Z,22.25
2017-11-07T08:22:36.360Z,20.75
2017-11-07T08:24:12.767Z,26.25
2017-11-07T08:25:49.155Z,20.75
2017-11-07T08:27:25.548Z,25.25
2017-11-07T08:29:02.532Z,20.50
2017-11-07T08:30:39.089Z,14.75
2017-11-07T08:32:16.291Z,15.25
2017-11-07T08:33:52.834Z,20.25
2017-11-07T08:35:30.647Z,22.00
2017-11-07T08:37:07.125Z,18.00
2017-11-07T08:38:43.655Z,18.50
2017-11-07T08:40:20.925Z,27.00
2017-11-07T08:41:57.691Z,17.25
2017-11-07T08:43:34.846Z,23.75
2017-11-07T08:45:12.890Z,25.50
2017-11-07T08:46:49.364Z,18.00
2017-11-07T08:48:25.837Z,26.50
2017-11-07T08:50:02.248Z,21.75
2017-11-07T08:51:41.524Z,23.50
2017-11-07T08:53:18.664Z,24.75
2017-11-07T08:54:56.325Z,21.25
2017-11-07T08:56:33.095Z,27.25
2017-11-07T08:58:10.225Z,20.25
2017-11-07T08:59:46.919Z,21.25
2017-11-07T09:01:24.292Z,20.75
2017-11-07T09:04:44.024Z,21.00
2017-11-07T09:06:20.464Z,22.00
2017-11-07T09:07:57.327Z,27.50
2017-11-07T09:09:34.279Z,23.25
2017-11-07T09:11:11.332Z,17.25
2017-11-07T09:12:48.124Z,20.25
2017-11-07T09:14:24.966Z,22.25
2017-11-07T09:16:03.159Z,23.25
2017-11-07T09:17:40.679Z,23.00
2017-11-07T09:19:17.299Z,21.25
2017-11-07T09:20:54.002Z,19.50
2017-11-07T09:22:30.352Z,23.00
2017-11-07T09:24:06.809Z,26.50
2017-11-07T09:25:43.958Z,22.50
2017-11-07T09:27:21.685Z,25.00
2017-11-07T09:28:58.325Z,27.25
2017-11-07T09:30:36.001Z,22.50
2017-11-07T09:32:12.654Z,20.75
2017-11-07T09:33:49.136Z,21.75
2017-11-07T09:35:26.966Z,21.00
2017-11-07T09:37:04.237Z,22.25
2017-11-07T09:38:42.477Z,21.75
2017-11-07T09:40:19.266Z,22.25
2017-11-07T09:41:56.015Z,25.75
2017-11-07T09:43:44.931Z,26.75
2017-11-07T09:45:21.613Z,23.25
2017-11-07T09:46:58.539Z,21.00
2017-11-07T09:48:35.134Z,25.50
2017-11-07T09:50:12.374Z,24.25
2017-11-07T09:51:48.795Z,25.00
2017-11-07T09:53:26.498Z,30.75
2017-11-07T09:55:03.091Z,24.00
2017-11-07T09:56:39.584Z,27.75
2017-11-07T09:58:16.183Z,24.50
2017-11-07T09:59:52.943Z,23.50
2017-11-07T10:01:30.793Z,23.25
2017-11-07T10:03:07.359Z,21.00
2017-11-07T10:04:44.035Z,17.50
2017-11-07T10:06:22.567Z,21.50
2017-11-07T10:08:00.098Z,23.00
2017-11-07T10:09:38.407Z,23.25
2017-11-07T10:11:14.760Z,21.25
2017-11-07T10:12:52.277Z,27.50
2017-11-07T10:14:30.554Z,20.25
2017-11-07T10:16:07.019Z,23.25
2017-11-07T10:17:44.293Z,22.25
2017-11-07T10:19:21.939Z,24.50
2017-11-07T10:20:58.412Z,24.75
2017-11-07T10:22:35.280Z,28.25
2017-11-07T10:24:12.637Z,24.00
2017-11-07T10:25:49.448Z,22.00
2017-11-07T10:27:26.898Z,22.50
2017-11-07T10:29:03.366Z,22.75
2017-11-07T10:30:39.826Z,27.00
2017-11-07T10:32:17.874Z,21.00
2017-11-07T10:33:54.417Z,26.00
2017-11-07T10:35:30.906Z,23.50
2017-11-07T10:37:07.902Z,22.00
2017-11-07T10:38:45.488Z,23.25
2017-11-07T10:40:28.502Z,23.50
2017-11-07T10:42:05.058Z,21.25
2017-11-07T10:43:41.913Z,26.50
2017-11-07T10:45:21.618Z,26.50
2017-11-07T10:46:59.222Z,28.25
2017-11-07T10:48:36.035Z,28.75
2017-11-07T10:50:13.012Z,26.75
2017-11-07T10:51:49.839Z,27.00
2017-11-07T10:53:26.632Z,23.75
2017-11-07T10:55:03.768Z,25.25
2017-11-07T10:56:41.151Z,28.25
2017-11-07T10:58:19.893Z,27.50
2017-11-07T10:59:56.621Z,24.50
2017-11-07T11:01:34.298Z,22.00
2017-11-07T11:03:11.844Z,22.25
2017-11-07T11:04:49.687Z,28.25
2017-11-07T11:06:26.459Z,27.50
2017-11-07T11:08:03.236Z,25.75
2017-11-07T11:09:40.680Z,28.25
2017-11-07T11:11:18.289Z,29.50
2017-11-07T11:12:54.742Z,23.25
2017-11-07T11:14:31.181Z,27.00
2017-11-07T11:16:08.110Z,26.25
2017-11-07T11:17:44.839Z,23.50
2017-11-07T11:19:21.326Z,29.25
2017-11-07T11:20:57.816Z,25.00
2017-11-07T11:22:35.030Z,28.00
2017-11-07T11:24:11.750Z,28.50
2017-11-07T11:25:48.252Z,22.50
2017-11-07T11:27:26.617Z,25.75
2017-11-07T11:29:03.514Z,24.75
2017-11-07T11:30:40.632Z,30.00
2017-11-07T11:32:17.928Z,23.50
2017-11-07T11:33:54.293Z,23.25
2017-11-07T11:35:30.769Z,25.00
2017-11-07T11:37:07.935Z,25.50
2017-11-07T11:38:45.096Z,26.25
2017-11-07T11:40:25.524Z,23.25
2017-11-07T11:42:02.058Z,30.25
2017-11-07T11:43:39.684Z,24.25
2017-11-07T11:45:18.109Z,26.50
2017-11-07T11:46:55.232Z,22.25
2017-11-07T11:48:31.940Z,23.25
2017-11-07T11:50:09.744Z,25.00
2017-11-07T11:51:46.514Z,27.25
2017-11-07T11:53:23.251Z,23.00
2017-11-07T11:55:00.720Z,29.25
2017-11-07T11:56:38.245Z,33.00
2017-11-07T11:58:14.847Z,28.25
2017-11-07T11:59:51.448Z,24.25
2017-11-07T12:01:28.225Z,24.50
2017-11-07T12:03:05.381Z,26.00
2017-11-07T12:04:41.970Z,23.75
2017-11-07T12:06:18.452Z,23.75
2017-11-07T12:07:57.037Z,23.75
2017-11-07T12:09:34.172Z,28.25
2017-11-07T12:11:10.732Z,30.25
2017-11-07T12:12:47.245Z,30.25
2017-11-07T12:14:23.764Z,24.50
2017-11-07T12:16:00.752Z,37.00
2017-11-07T12:17:37.179Z,31.50
2017-11-07T12:19:13.760Z,35.25
2017-11-07T12:20:50.389Z,27.00
2017-11-07T12:22:28.071Z,35.25
2017-11-07T12:24:04.924Z,29.75
2017-11-07T12:25:41.678Z,34.00
2017-11-07T12:27:19.643Z,32.25
2017-11-07T12:28:56.732Z,30.00
2017-11-07T12:30:33.606Z,37.50
2017-11-07T12:32:11.708Z,35.00
2017-11-07T12:33:49.319Z,35.25
2017-11-07T12:35:26.897Z,34.25
2017-11-07T12:37:04.246Z,30.75
2017-11-07T12:38:40.838Z,35.00
2017-11-07T12:40:17.739Z,26.75
2017-11-07T12:41:55.557Z,23.25
2017-11-07T12:43:32.455Z,21.75
2017-11-07T12:45:09.362Z,21.25
2017-11-07T12:46:46.510Z,18.50
2017-11-07T12:48:23.547Z,26.75
2017-11-07T12:50:14.621Z,17.25
2017-11-07T12:52:02.192Z,20.75
2017-11-07T12:53:39.074Z,21.00
2017-11-07T12:55:15.595Z,25.75
2017-11-07T12:56:52.889Z,21.00
2017-11-07T12:58:29.516Z,23.25
2017-11-07T13:00:08.610Z,23.25
2017-11-07T13:01:45.181Z,25.25
2017-11-07T13:03:22.484Z,23.25
2017-11-07T13:05:00.267Z,25.00
2017-11-07T13:06:38.209Z,23.00
2017-11-07T13:08:15.300Z,22.25
2017-11-07T13:09:51.656Z,27.50
2017-11-07T13:11:28.055Z,24.00
2017-11-07T13:13:06.276Z,21.00
2017-11-07T13:14:43.019Z,27.75
2017-11-07T13:16:19.445Z,27.50
2017-11-07T13:17:55.979Z,24.75
2017-11-07T13:19:32.589Z,24.75
2017-11-07T13:21:09.189Z,28.75
2017-11-07T13:22:45.905Z,28.00
2017-11-07T13:24:23.251Z,23.50
2017-11-07T13:26:00.212Z,22.75
2017-11-07T13:27:36.730Z,26.00
2017-11-07T13:29:13.239Z,22.75
2017-11-07T13:30:50.001Z,24.00
2017-11-07T13:32:26.395Z,24.75
2017-11-07T13:34:02.889Z,21.25
2017-11-07T13:35:40.251Z,21.25
2017-11-07T13:37:17.858Z,23.25
2017-11-07T13:38:54.246Z,19.50
2017-11-07T13:40:30.899Z,21.75
2017-11-07T13:42:07.569Z,19.25
2017-11-07T13:43:44.543Z,18.50
2017-11-07T13:45:21.102Z,20.00
2017-11-07T13:47:00.433Z,19.25
2017-11-07T13:48:38.509Z,20.75
2017-11-07T13:50:16.342Z,20.00
2017-11-07T13:51:53.026Z,17.00
2017-11-07T13:53:30.354Z,22.25
2017-11-07T13:55:11.537Z,21.25
2017-11-07T13:56:49.831Z,20.25
2017-11-07T13:58:27.799Z,23.25
2017-11-07T14:02:20.579Z,24.00
2017-11-07T14:03:57.375Z,23.75
2017-11-07T14:05:35.816Z,18.50
2017-11-07T14:07:12.567Z,19.50
2017-11-07T14:08:50.001Z,22.75
2017-11-07T14:10:29.861Z,24.50
2017-11-07T14:12:08.749Z,23.50
2017-11-07T14:13:45.481Z,19.00
2017-11-07T14:15:23.027Z,20.75
2017-11-07T14:17:00.185Z,21.00
2017-11-07T14:18:37.561Z,28.50
2017-11-07T14:20:14.159Z,22.75
2017-11-07T14:21:50.927Z,22.50
2017-11-07T14:23:28.370Z,21.50
2017-11-07T14:25:04.958Z,21.00
2017-11-07T14:26:41.560Z,24.75
2017-11-07T14:28:21.357Z,22.75
2017-11-07T14:29:57.886Z,21.75
2017-11-07T14:31:34.902Z,22.50
2017-11-07T14:33:12.090Z,21.00
2017-11-07T14:34:50.412Z,19.50
2017-11-07T14:36:27.791Z,18.50
2017-11-07T14:38:04.209Z,27.00
2017-11-07T14:39:40.770Z,25.25
2017-11-07T14:41:17.563Z,18.75
2017-11-07T14:42:56.194Z,20.75
2017-11-07T14:44:33.429Z,21.25
2017-11-07T14:46:11.206Z,20.25
2017-11-07T14:47:49.248Z,17.75
2017-11-07T14:49:25.916Z,15.75
2017-11-07T14:52:39.748Z,24.75
2017-11-07T14:54:16.796Z,24.75
2017-11-07T14:55:54.743Z,29.50
2017-11-07T14:57:31.382Z,24.00
2017-11-07T14:59:08.103Z,24.50
2017-11-07T15:00:45.258Z,24.00
2017-11-07T15:02:21.960Z,18.75
2017-11-07T15:03:58.568Z,19.75
2017-11-07T15:05:35.135Z,20.00
2017-11-07T15:07:12.333Z,22.75
2017-11-07T15:08:52.375Z,20.75
2017-11-07T15:10:30.712Z,24.25
2017-11-07T15:12:07.141Z,25.00
2017-11-07T15:13:44.119Z,23.75
2017-11-07T15:15:21.302Z,21.25
2017-11-07T15:16:57.864Z,21.25
2017-11-07T15:18:34.519Z,23.75
2017-11-07T15:20:12.114Z,19.75
2017-11-07T15:21:51.716Z,21.75
2017-11-07T15:23:28.785Z,28.25
2017-11-07T15:25:21.720Z,19.00
2017-11-07T15:27:02.314Z,25.25
2017-11-07T15:28:41.932Z,23.75
2017-11-07T15:30:19.857Z,22.25
2017-11-07T15:31:56.781Z,23.50
2017-11-07T15:33:35.341Z,23.50
2017-11-07T15:35:13.046Z,22.75
2017-11-07T15:36:50.172Z,29.25
2017-11-07T15:38:26.648Z,23.25
2017-11-07T15:40:03.397Z,22.75
2017-11-07T15:41:40.919Z,27.00
2017-11-07T15:43:17.339Z,27.50
2017-11-07T15:44:56.219Z,26.25
2017-11-07T15:46:32.988Z,26.00
2017-11-07T15:48:09.835Z,26.50
2017-11-07T15:49:47.232Z,25.75
2017-11-07T15:51:23.644Z,22.00
2017-11-07T15:53:00.279Z,26.00
2017-11-07T15:54:36.795Z,30.50
2017-11-07T15:56:13.764Z,27.25
2017-11-07T15:57:50.229Z,29.25
2017-11-07T15:59:26.528Z,29.25
2017-11-07T16:01:05.579Z,32.00
2017-11-07T16:02:42.475Z,30.75
2017-11-07T16:04:18.897Z,27.00
2017-11-07T16:05:56.082Z,30.00
2017-11-07T16:07:32.766Z,40.00
2017-11-07T16:09:10.057Z,34.50
2017-11-07T16:10:46.492Z,31.50
2017-11-07T16:12:23.647Z,37.00
2017-11-07T16:14:00.643Z,34.25
2017-11-07T16:15:38.027Z,35.75
2017-11-07T16:17:15.273Z,29.00
2017-11-07T16:18:51.757Z,32.75
2017-11-07T16:20:28.204Z,35.00
2017-11-07T16:22:05.132Z,34.25
2017-11-07T16:23:42.398Z,34.25
2017-11-07T16:25:18.905Z,42.00
2017-11-07T16:26:55.377Z,38.00
2017-11-07T16:28:31.988Z,40.00
2017-11-07T16:30:11.793Z,38.25
2017-11-07T16:31:50.533Z,38.75
2017-11-07T16:33:27.977Z,39.00
2017-11-07T16:35:05.141Z,42.00
2017-11-07T16:36:41.673Z,37.50
2017-11-07T16:38:18.992Z,38.25
2017-11-07T16:39:55.576Z,39.00
2017-11-07T16:41:32.399Z,40.75
2017-11-07T16:43:12.737Z,37.75
2017-11-07T16:44:49.203Z,37.75
2017-11-07T16:46:26.020Z,37.25
2017-11-07T16:48:03.663Z,40.75
2017-11-07T16:49:40.237Z,41.25
2017-11-07T16:51:17.878Z,38.75
2017-11-07T16:52:54.664Z,38.00
2017-11-07T16:54:31.784Z,41.50
2017-11-07T16:56:09.155Z,40.75
2017-11-07T16:57:47.069Z,42.50
2017-11-07T16:59:24.173Z,41.00
2017-11-07T17:01:01.470Z,39.75
2017-11-07T17:02:38.896Z,40.00
2017-11-07T17:04:15.447Z,41.00
2017-11-07T17:05:52.061Z,39.00
2017-11-07T17:07:29.220Z,41.75
2017-11-07T17:09:06.167Z,39.75
2017-11-07T17:10:43.372Z,42.00
2017-11-07T17:12:19.747Z,41.25
2017-11-07T17:13:56.300Z,40.00
2017-11-07T17:15:32.979Z,42.00
2017-11-07T17:17:09.464Z,41.75
2017-11-07T17:18:45.939Z,42.25
2017-11-07T17:20:23.840Z,41.00
2017-11-07T17:22:01.619Z,42.00
2017-11-07T17:23:38.147Z,42.00
2017-11-07T17:25:14.648Z,39.75
2017-11-07T17:26:51.359Z,41.00
2017-11-07T17:28:27.818Z,38.25
2017-11-07T17:30:06.852Z,40.50
2017-11-07T17:31:43.925Z,38.00
2017-11-07T17:33:20.790Z,38.75
2017-11-07T17:34:58.185Z,38.75
2017-11-07T17:36:34.767Z,38.25
2017-11-07T17:38:11.857Z,37.25
2017-11-07T17:39:48.672Z,32.00
2017-11-07T17:41:25.290Z,36.75
2017-11-07T17:43:02.323Z,40.00
2017-11-07T17:44:38.841Z,39.00
2017-11-07T17:46:16.141Z,31.75
2017-11-07T17:47:56.382Z,40.25
2017-11-07T17:49:41.347Z,37.50
2017-11-07T17:51:18.993Z,38.50
2017-11-07T17:52:55.995Z,30.75
2017-11-07T17:54:32.919Z,37.50
2017-11-07T17:56:11.966Z,37.75
2017-11-07T17:57:48.958Z,38.50
2017-11-07T17:59:25.549Z,37.50
2017-11-07T18:01:02.545Z,37.25
2017-11-07T18:02:38.989Z,35.50
2017-11-07T18:04:16.388Z,38.00
2017-11-07T18:05:53.099Z,37.50
2017-11-07T18:07:29.872Z,37.25
2017-11-07T18:09:07.464Z,38.25
2017-11-07T18:10:44.472Z,39.25
2017-11-07T18:12:21.954Z,37.25
2017-11-07T18:13:58.827Z,34.25
2017-11-07T18:15:35.661Z,39.00
2017-11-07T18:17:13.432Z,41.25
2017-11-07T18:18:50.802Z,39.50
2017-11-07T18:20:27.588Z,38.00
2017-11-07T18:22:04.134Z,37.75
2017-11-07T18:23:41.293Z,37.75
2017-11-07T18:25:18.969Z,36.50
2017-11-07T18:26:55.717Z,38.25
2017-11-07T18:28:32.342Z,37.75
2017-11-07T18:30:13.535Z,37.75
2017-11-07T18:31:51.504Z,36.50
2017-11-07T18:33:28.564Z,38.75
2017-11-07T18:35:05.146Z,37.75
2017-11-07T18:36:43.606Z,38.50
2017-11-07T18:38:21.196Z,38.50
2017-11-07T18:39:58.720Z,38.00
2017-11-07T18:41:39.209Z,37.75
2017-11-07T18:43:17.415Z,37.50
2017-11-07T18:44:56.890Z,38.25
2017-11-07T18:46:35.308Z,37.50
2017-11-07T18:48:13.809Z,37.00
2017-11-07T18:49:51.867Z,40.25
2017-11-07T18:51:31.355Z,30.75
2017-11-07T18:53:10.144Z,32.25
2017-11-07T18:55:03.904Z,35.00
2017-11-07T18:56:44.509Z,36.50
2017-11-07T18:58:22.190Z,38.00
2017-11-07T19:00:01.237Z,35.50
2017-11-07T19:01:41.821Z,42.00
2017-11-07T19:03:19.391Z,37.00
2017-11-07T19:04:57.701Z,42.50
2017-11-07T19:06:36.902Z,40.75
2017-11-07T19:08:15.756Z,35.50
2017-11-07T19:09:54.195Z,40.00
2017-11-07T19:11:32.273Z,40.75
2017-11-07T19:13:09.382Z,33.50
2017-11-07T19:14:48.257Z,39.25
2017-11-07T19:16:27.587Z,42.00
2017-11-07T19:18:06.814Z,42.50
2017-11-07T19:19:46.557Z,38.25
2017-11-07T19:21:27.915Z,38.50
2017-11-07T19:23:08.732Z,39.00
2017-11-07T19:24:48.679Z,42.00
2017-11-07T19:26:28.281Z,39.75
2017-11-07T19:28:07.321Z,38.50
2017-11-07T19:29:49.963Z,41.00
2017-11-07T19:31:35.621Z,39.50
2017-11-07T19:35:14.468Z,40.50
2017-11-07T19:36:52.894Z,41.50
2017-11-07T19:38:35.395Z,39.50
2017-11-07T19:40:15.506Z,37.75
2017-11-07T19:41:57.275Z,39.50
2017-11-07T19:43:38.331Z,37.50
2017-11-07T19:45:21.579Z,38.50
2017-11-07T19:47:04.399Z,38.75
2017-11-07T19:48:45.324Z,36.50
2017-11-07T19:50:28.023Z,39.25
2017-11-07T19:52:09.796Z,38.75
2017-11-07T19:55:30.123Z,42.25
2017-11-07T19:57:11.231Z,39.50
2017-11-07T19:59:40.485Z,38.25
2017-11-07T20:03:34.534Z,43.50
2017-11-07T20:05:14.827Z,44.25
2017-11-07T20:07:33.476Z,39.25
2017-11-07T20:09:20.504Z,44.00
2017-11-07T20:11:27.825Z,39.25
2017-11-07T20:13:10.800Z,39.75
2017-11-07T20:15:00.332Z,42.00
2017-11-07T20:16:42.612Z,46.25
2017-11-07T20:18:22.136Z,38.50
2017-11-07T20:19:59.399Z,38.75
2017-11-07T20:21:39.724Z,40.00
2017-11-07T20:23:19.070Z,46.50
2017-11-07T20:24:57.587Z,47.50
2017-11-07T20:26:37.666Z,43.25
2017-11-07T20:28:16.224Z,46.50
2017-11-07T20:29:53.566Z,41.50
2017-11-07T20:31:31.659Z,47.50
2017-11-07T20:33:10.653Z,46.50
2017-11-07T20:34:48.114Z,48.75
2017-11-07T20:36:25.678Z,44.00
2017-11-07T20:38:03.731Z,47.00
2017-11-07T20:39:41.408Z,37.25
2017-11-07T20:41:21.205Z,44.75
2017-11-07T20:42:58.787Z,44.25
2017-11-07T20:44:37.468Z,44.75
2017-11-07T20:46:16.073Z,40.50
2017-11-07T20:47:54.599Z,39.25
2017-11-07T20:49:34.103Z,36.50
2017-11-07T20:51:13.089Z,38.75
2017-11-07T20:52:50.744Z,44.00
2017-11-07T20:54:28.673Z,41.25
2017-11-07T20:56:07.170Z,38.00
2017-11-07T20:57:45.310Z,40.50
2017-11-07T20:59:23.154Z,41.25
2017-11-07T21:01:01.205Z,42.00
2017-11-07T21:02:38.537Z,44.00
2017-11-07T21:04:15.540Z,46.75
2017-11-07T21:05:52.743Z,42.50
2017-11-07T21:07:31.017Z,44.25
2017-11-07T21:09:08.979Z,43.50
2017-11-07T21:10:46.570Z,41.25